Time;durP1;ratioP1;P1;durP2;ratioP2;P2;SDS_P1;SDS_P2;PMS_P1;PMS_P2;Temp;Humidity;BMP_temperature;BMP_pressure;BME280_temperature;BME280_humidity;BME280_pressure;Samples;Min_cycle;Max_cycle;Signal;HPM_P1;HPM_P2
2023/08/14 00:00:53;;;;;;;;;;;17.40;99.90;;;;;;8446349;28;19924;-70
2023/08/14 00:04:57;;;;;;;;;;;17.40;99.90;;;;;;8431319;28;19924;-70
2023/08/14 00:08:58;;;;;;;;;;;17.40;99.90;;;;;;8451398;28;20314;-70
2023/08/14 00:13:00;;;;;;;;;;;17.30;99.90;;;;;;8457150;27;20000;-70
2023/08/14 00:17:02;;;;;;;;;;;17.30;99.90;;;;;;8441879;28;19924;-70
2023/08/14 00:21:03;;;;;;;;;;;17.20;99.90;;;;;;8453918;28;20341;-71
2023/08/14 00:25:05;;;;;;;;;;;17.20;99.90;;;;;;8434441;28;19927;-70
2023/08/14 00:29:07;;;;;;;;;;;17.10;99.90;;;;;;8437773;27;19924;-71
2023/08/14 00:33:08;;;;;;;;;;;17.10;99.90;;;;;;8452242;28;20369;-71
2023/08/14 00:37:10;;;;;;;;;;;17.10;99.90;;;;;;8452953;28;20376;-71
2023/08/14 00:41:12;;;;;;;;;;;17.00;99.90;;;;;;8458672;28;19975;-71
2023/08/14 00:45:14;;;;;;;;;;;17.00;99.90;;;;;;8435560;27;20469;-71
2023/08/14 00:49:16;;;;;;;;;;;17.00;99.90;;;;;;8459369;28;19992;-71
2023/08/14 00:53:18;;;;;;;;;;;16.90;99.90;;;;;;8449698;28;20296;-70
2023/08/14 00:57:20;;;;;;;;;;;16.90;99.90;;;;;;8440470;28;20017;-71
2023/08/14 01:01:22;;;;;;;;;;;16.80;99.90;;;;;;8446004;28;20361;-71
2023/08/14 01:05:23;;;;;;;;;;;16.80;99.90;;;;;;8454074;28;19985;-71
2023/08/14 01:09:25;;;;;;;;;;;16.80;99.90;;;;;;8443906;28;19924;-71
2023/08/14 01:13:47;;;;;;;;;;;16.80;99.90;;;;;;8457392;28;19935;-70
2023/08/14 01:18:01;;;;;;;;;;;16.70;99.90;;;;;;8444211;28;19923;-71
2023/08/14 01:22:05;;;;;;;;;;;16.70;99.90;;;;;;8449075;28;20299;-71
2023/08/14 01:26:07;;;;;;;;;;;16.70;99.90;;;;;;8453110;28;19924;-71
2023/08/14 01:30:08;;;;;;;;;;;16.70;99.90;;;;;;8448015;28;20287;-70
2023/08/14 01:34:10;;;;;;;;;;;16.70;99.90;;;;;;8451182;28;19928;-71
2023/08/14 01:38:21;;;;;;;;;;;16.70;99.90;;;;;;8452859;28;19947;-71
2023/08/14 01:42:22;;;;;;;;;;;16.60;99.90;;;;;;8452227;28;19967;-71
2023/08/14 01:46:25;;;;;;;;;;;16.60;99.90;;;;;;8445821;28;19932;-70
2023/08/14 01:50:29;;;;;;;;;;;16.60;99.90;;;;;;8458281;28;19958;-71
2023/08/14 01:54:30;;;;;;;;;;;16.60;99.90;;;;;;8449438;27;20351;-71
2023/08/14 01:58:32;;;;;;;;;;;16.50;99.90;;;;;;8458588;28;19927;-71
2023/08/14 02:02:34;;;;;;;;;;;16.50;99.90;;;;;;8442428;28;19924;-71
2023/08/14 02:06:35;;;;;;;;;;;16.50;99.90;;;;;;8458864;28;20362;-71
2023/08/14 02:10:37;;;;;;;;;;;16.60;99.90;;;;;;8453539;27;19927;-71
2023/08/14 02:14:39;;;;;;;;;;;16.60;99.90;;;;;;8462583;27;20421;-71
2023/08/14 02:18:40;;;;;;;;;;;16.60;99.90;;;;;;8457094;28;20447;-71
2023/08/14 02:22:42;;;;;;;;;;;16.60;99.90;;;;;;8450185;28;20337;-71
2023/08/14 02:26:43;;;;;;;;;;;16.60;99.90;;;;;;8455844;27;19968;-70
2023/08/14 02:30:45;;;;;;;;;;;16.60;99.90;;;;;;8448117;28;19977;-71
2023/08/14 02:34:48;;;;;;;;;;;16.60;99.90;;;;;;8442919;28;20383;-71
2023/08/14 02:38:49;;;;;;;;;;;16.60;99.90;;;;;;8456750;28;19923;-71
2023/08/14 02:42:51;;;;;;;;;;;16.60;99.90;;;;;;8455853;28;19992;-70
2023/08/14 02:46:53;;;;;;;;;;;16.60;99.90;;;;;;8440003;28;19970;-71
2023/08/14 02:50:55;;;;;;;;;;;16.60;99.90;;;;;;8461800;28;19970;-71
2023/08/14 02:54:56;;;;;;;;;;;16.60;99.90;;;;;;8446620;28;19923;-71
2023/08/14 02:58:58;;;;;;;;;;;16.50;99.90;;;;;;8455219;28;19924;-70
2023/08/14 03:02:59;;;;;;;;;;;16.50;99.90;;;;;;8461929;27;19928;-71
2023/08/14 03:07:01;;;;;;;;;;;16.40;99.90;;;;;;8456464;28;19924;-70
2023/08/14 03:11:03;;;;;;;;;;;16.40;99.90;;;;;;8462227;27;20344;-71
2023/08/14 03:15:05;;;;;;;;;;;16.30;99.90;;;;;;8453008;28;19924;-70
2023/08/14 03:19:07;;;;;;;;;;;16.30;99.90;;;;;;8466397;27;20340;-71
2023/08/14 03:23:08;;;;;;;;;;;16.20;99.90;;;;;;8455668;27;19924;-71
2023/08/14 03:27:13;;;;;;;;;;;16.20;99.90;;;;;;8442586;28;19924;-71
2023/08/14 03:31:15;;;;;;;;;;;16.20;99.90;;;;;;8454260;27;19931;-70
2023/08/14 03:35:17;;;;;;;;;;;16.20;99.90;;;;;;8428543;28;20355;-71
2023/08/14 03:39:18;;;;;;;;;;;16.20;99.90;;;;;;8460850;27;19923;-70
2023/08/14 03:43:20;;;;;;;;;;;16.20;99.90;;;;;;8458274;27;19923;-70
2023/08/14 03:47:22;;;;;;;;;;;16.10;99.90;;;;;;8448181;27;20378;-70
2023/08/14 03:51:23;;;;;;;;;;;16.10;99.90;;;;;;8463285;28;19924;-70
2023/08/14 03:55:25;;;;;;;;;;;16.10;99.90;;;;;;8458111;27;19968;-70
2023/08/14 03:59:27;;;;;;;;;;;16.10;99.90;;;;;;8463848;28;19927;-70
2023/08/14 04:03:28;;;;;;;;;;;16.00;99.90;;;;;;8458867;28;19928;-70
2023/08/14 04:07:30;;;;;;;;;;;16.00;99.90;;;;;;8467659;27;19973;-70
2023/08/14 04:11:32;;;;;;;;;;;16.00;99.90;;;;;;8468184;27;20375;-70
2023/08/14 04:15:34;;;;;;;;;;;16.10;99.90;;;;;;8450832;28;19924;-70
2023/08/14 04:19:36;;;;;;;;;;;16.10;99.90;;;;;;8456782;28;20310;-70
2023/08/14 04:23:38;;;;;;;;;;;16.20;99.90;;;;;;8454650;27;19928;-70
2023/08/14 04:27:39;;;;;;;;;;;16.20;99.90;;;;;;8476237;27;19931;-70
2023/08/14 04:31:41;;;;;;;;;;;16.10;99.90;;;;;;8452596;28;19928;-70
2023/08/14 04:35:43;;;;;;;;;;;16.10;99.90;;;;;;8485039;27;19932;-71
2023/08/14 04:39:44;;;;;;;;;;;16.10;99.90;;;;;;8468283;27;19924;-70
2023/08/14 04:43:46;;;;;;;;;;;16.10;99.90;;;;;;8456496;28;19928;-70
2023/08/14 04:47:48;;;;;;;;;;;16.10;99.90;;;;;;8456938;27;20368;-70
2023/08/14 04:51:49;;;;;;;;;;;16.10;99.90;;;;;;8446093;28;19967;-70
2023/08/14 04:55:51;;;;;;;;;;;16.10;99.90;;;;;;8443601;27;19931;-70
2023/08/14 04:59:53;;;;;;;;;;;16.10;99.90;;;;;;8481163;27;20328;-71
2023/08/14 05:03:54;;;;;;;;;;;16.20;99.90;;;;;;8457656;28;19969;-71
2023/08/14 05:07:56;;;;;;;;;;;16.20;99.90;;;;;;8451976;28;20031;-71
2023/08/14 05:11:58;;;;;;;;;;;16.30;99.90;;;;;;8450794;28;20053;-71
2023/08/14 05:16:00;;;;;;;;;;;16.40;99.90;;;;;;8456017;28;20684;-70
2023/08/14 05:20:09;;;;;;;;;;;16.50;99.90;;;;;;8459693;28;20321;-70
2023/08/14 05:24:12;;;;;;;;;;;16.50;99.90;;;;;;8437855;28;19968;-70
2023/08/14 05:28:13;;;;;;;;;;;16.50;99.90;;;;;;8458191;28;19924;-70
2023/08/14 05:32:15;;;;;;;;;;;16.60;99.90;;;;;;8458499;28;20455;-70
2023/08/14 05:36:17;;;;;;;;;;;16.70;99.90;;;;;;8454496;28;19995;-70
2023/08/14 05:40:22;;;;;;;;;;;16.70;99.90;;;;;;8461080;28;19969;-70
2023/08/14 05:44:23;;;;;;;;;;;16.80;99.90;;;;;;8461489;28;19976;-70
2023/08/14 05:48:25;;;;;;;;;;;16.80;99.90;;;;;;8465950;28;19923;-71
2023/08/14 05:52:26;;;;;;;;;;;16.90;99.90;;;;;;8452872;28;19924;-71
2023/08/14 05:56:28;;;;;;;;;;;17.00;99.90;;;;;;8449667;28;20311;-71
2023/08/14 06:00:30;;;;;;;;;;;17.00;99.90;;;;;;8452074;28;19928;-70
2023/08/14 06:04:33;;;;;;;;;;;17.00;99.90;;;;;;8442370;28;20339;-71
2023/08/14 06:08:34;;;;;;;;;;;17.00;99.90;;;;;;8454787;28;20295;-71
2023/08/14 06:12:36;;;;;;;;;;;17.00;99.90;;;;;;8460210;27;19931;-71
2023/08/14 06:16:38;;;;;;;;;;;17.10;99.90;;;;;;8462418;27;19935;-71
2023/08/14 06:20:39;;;;;;;;;;;17.10;99.90;;;;;;8458012;28;19969;-70
2023/08/14 06:24:41;;;;;;;;;;;17.10;99.90;;;;;;8456467;28;19958;-71
2023/08/14 06:28:43;;;;;;;;;;;17.20;99.90;;;;;;8465957;27;19924;-71
2023/08/14 06:32:44;;;;;;;;;;;17.20;99.90;;;;;;8458119;28;19980;-70
2023/08/14 06:36:46;;;;;;;;;;;17.30;99.90;;;;;;8452938;28;20411;-71
2023/08/14 06:40:48;;;;;;;;;;;17.40;99.90;;;;;;8457421;28;19928;-70
2023/08/14 06:44:49;;;;;;;;;;;17.50;99.90;;;;;;8458836;28;20291;-71
2023/08/14 06:48:51;;;;;;;;;;;17.60;99.90;;;;;;8463223;28;19952;-71
2023/08/14 06:52:53;;;;;;;;;;;17.70;99.90;;;;;;8463274;28;19924;-71
2023/08/14 06:56:54;;;;;;;;;;;17.80;99.90;;;;;;8444723;28;20001;-70
2023/08/14 07:00:56;;;;;;;;;;;18.00;99.90;;;;;;8440081;28;19932;-70
2023/08/14 07:04:58;;;;;;;;;;;18.10;99.90;;;;;;8452475;27;19939;-71
2023/08/14 07:09:00;;;;;;;;;;;18.20;99.90;;;;;;8431895;28;19932;-70
2023/08/14 07:13:02;;;;;;;;;;;18.30;99.90;;;;;;8428263;28;20326;-70
2023/08/14 07:17:04;;;;;;;;;;;18.40;99.90;;;;;;8443657;28;19931;-71
2023/08/14 07:21:05;;;;;;;;;;;18.40;99.90;;;;;;8450946;27;19978;-70
2023/08/14 07:25:08;;;;;;;;;;;18.50;99.90;;;;;;8449479;27;19924;-70
2023/08/14 07:29:09;;;;;;;;;;;18.50;99.90;;;;;;8432920;28;19924;-70
2023/08/14 07:33:13;;;;;;;;;;;18.60;99.90;;;;;;8429929;28;19928;-70
2023/08/14 07:37:15;;;;;;;;;;;18.80;99.90;;;;;;8429276;28;19955;-70
2023/08/14 07:41:17;;;;;;;;;;;18.90;99.90;;;;;;8436988;28;20660;-70
2023/08/14 07:45:18;;;;;;;;;;;19.00;99.90;;;;;;8435744;28;19931;-70
2023/08/14 07:49:20;;;;;;;;;;;19.10;99.90;;;;;;8434505;28;19928;-69
2023/08/14 07:53:22;;;;;;;;;;;19.20;99.90;;;;;;8434864;28;19961;-70
2023/08/14 07:57:24;;;;;;;;;;;19.30;99.90;;;;;;8433900;28;19935;-71
2023/08/14 08:01:27;;;;;;;;;;;19.40;99.90;;;;;;8434208;28;20330;-70
2023/08/14 08:05:31;;;;;;;;;;;19.50;99.90;;;;;;8434362;28;21378;-71
2023/08/14 08:09:32;;;;;;;;;;;19.60;99.90;;;;;;8437985;28;19923;-71
2023/08/14 08:13:34;;;;;;;;;;;19.70;99.90;;;;;;8453047;27;19924;-70
2023/08/14 08:17:36;;;;;;;;;;;19.80;99.90;;;;;;8436544;28;19931;-70
2023/08/14 08:21:37;;;;;;;;;;;19.90;99.90;;;;;;8433938;28;20675;-70
2023/08/14 08:25:39;;;;;;;;;;;20.00;99.90;;;;;;8434241;28;19928;-70
2023/08/14 08:29:41;;;;;;;;;;;20.10;99.90;;;;;;8440997;28;19924;-70
2023/08/14 08:33:42;;;;;;;;;;;20.20;99.90;;;;;;8432733;28;19955;-71
2023/08/14 08:37:44;;;;;;;;;;;20.30;99.90;;;;;;8423397;28;19931;-70
2023/08/14 08:41:46;;;;;;;;;;;20.40;99.90;;;;;;8421159;28;19939;-71
2023/08/14 08:45:50;;;;;;;;;;;20.50;99.90;;;;;;8432771;28;20377;-71
2023/08/14 08:49:52;;;;;;;;;;;20.60;99.90;;;;;;8427792;28;19924;-71
2023/08/14 08:53:54;;;;;;;;;;;20.70;99.90;;;;;;8437112;28;19985;-71
2023/08/14 08:57:57;;;;;;;;;;;20.80;99.90;;;;;;8436759;28;19924;-71
2023/08/14 09:01:59;;;;;;;;;;;21.00;99.90;;;;;;8433641;28;19932;-70
2023/08/14 09:06:01;;;;;;;;;;;21.10;99.90;;;;;;8431489;28;20308;-71
2023/08/14 09:10:03;;;;;;;;;;;21.10;99.90;;;;;;8431006;28;19927;-70
2023/08/14 09:14:05;;;;;;;;;;;21.20;99.90;;;;;;8430633;28;19995;-71
2023/08/14 09:18:07;;;;;;;;;;;21.30;99.90;;;;;;8438046;28;19927;-71
2023/08/14 09:22:10;;;;;;;;;;;21.40;99.90;;;;;;8427177;28;19928;-70
2023/08/14 09:26:11;;;;;;;;;;;21.40;99.90;;;;;;8427181;28;19931;-70
2023/08/14 09:30:13;;;;;;;;;;;21.50;99.90;;;;;;8431921;28;20508;-71
2023/08/14 09:34:16;;;;;;;;;;;21.50;99.90;;;;;;8412747;28;20041;-70
2023/08/14 09:38:18;;;;;;;;;;;21.50;99.90;;;;;;8435376;28;20371;-71
2023/08/14 09:42:20;;;;;;;;;;;21.50;99.90;;;;;;8433604;28;19997;-71
2023/08/14 09:46:23;;;;;;;;;;;21.60;99.90;;;;;;8428953;28;19928;-71
2023/08/14 09:50:27;;;;;;;;;;;21.70;99.90;;;;;;8428077;28;19928;-70
2023/08/14 09:54:30;;;;;;;;;;;21.80;99.90;;;;;;8428465;28;19928;-71
2023/08/14 09:58:33;;;;;;;;;;;21.90;99.90;;;;;;8432179;28;19931;-71
2023/08/14 10:02:37;;;;;;;;;;;21.90;99.90;;;;;;8423485;28;19935;-71
2023/08/14 10:06:39;;;;;;;;;;;22.00;99.90;;;;;;8429056;28;19939;-71
2023/08/14 10:10:41;;;;;;;;;;;22.10;99.90;;;;;;8436459;28;19928;-71
2023/08/14 10:14:47;;;;;;;;;;;22.10;99.90;;;;;;8432571;28;19964;-71
2023/08/14 10:18:49;;;;;;;;;;;22.20;99.90;;;;;;8434545;27;19977;-71
2023/08/14 10:22:54;;;;;;;;;;;22.20;99.90;;;;;;8424706;28;19931;-71
2023/08/14 10:26:56;;;;;;;;;;;22.30;99.90;;;;;;8438128;28;19989;-71
2023/08/14 10:30:58;;;;;;;;;;;22.40;99.90;;;;;;8450196;27;19924;-71
2023/08/14 10:35:00;;;;;;;;;;;22.60;99.90;;;;;;8447586;27;19932;-71
2023/08/14 10:39:06;;;;;;;;;;;22.60;99.90;;;;;;8432884;28;19981;-71
2023/08/14 10:43:07;;;;;;;;;;;22.60;99.90;;;;;;8433751;27;19924;-71
2023/08/14 10:47:12;;;;;;;;;;;22.60;99.90;;;;;;8439571;28;20283;-71
2023/08/14 10:51:19;;;;;;;;;;;22.70;99.90;;;;;;8435799;28;19931;-71
2023/08/14 10:55:25;;;;;;;;;;;22.70;99.90;;;;;;8438948;28;19932;-71
2023/08/14 10:59:28;;;;;;;;;;;22.80;99.90;;;;;;8432297;28;19954;-71
2023/08/14 11:03:32;;;;;;;;;;;22.80;99.90;;;;;;8436249;28;19963;-71
2023/08/14 11:07:36;;;;;;;;;;;22.90;99.90;;;;;;8451357;27;19943;-71
2023/08/14 11:11:43;;;;;;;;;;;22.90;99.90;;;;;;8440890;28;19927;-71
2023/08/14 11:15:45;;;;;;;;;;;22.90;99.90;;;;;;8446132;27;19928;-71
2023/08/14 11:19:46;;;;;;;;;;;22.90;99.90;;;;;;8433056;28;20018;-70
2023/08/14 11:23:48;;;;;;;;;;;23.00;99.90;;;;;;8435333;28;19928;-71
2023/08/14 11:27:50;;;;;;;;;;;23.10;99.90;;;;;;8437129;28;19928;-71
2023/08/14 11:31:52;;;;;;;;;;;23.20;99.90;;;;;;8432163;28;19931;-71
2023/08/14 11:35:54;;;;;;;;;;;23.20;99.90;;;;;;8432135;28;19930;-71
2023/08/14 11:39:59;;;;;;;;;;;23.30;99.90;;;;;;8433467;28;20287;-70
2023/08/14 11:44:02;;;;;;;;;;;23.30;99.90;;;;;;8432108;28;19932;-71
2023/08/14 11:48:04;;;;;;;;;;;23.20;99.90;;;;;;8428663;28;19957;-71
2023/08/14 11:52:06;;;;;;;;;;;23.30;99.90;;;;;;8436578;28;19967;-71
2023/08/14 11:56:08;;;;;;;;;;;23.40;99.90;;;;;;8432642;28;19985;-71
2023/08/14 12:00:10;;;;;;;;;;;23.50;99.90;;;;;;8435506;27;19928;-70
2023/08/14 12:04:12;;;;;;;;;;;23.50;99.90;;;;;;8435926;28;19930;-71
2023/08/14 12:08:14;;;;;;;;;;;23.50;99.90;;;;;;8432277;28;20276;-71
2023/08/14 12:12:16;;;;;;;;;;;23.50;99.90;;;;;;8435509;28;19928;-71
2023/08/14 12:16:22;;;;;;;;;;;23.70;99.90;;;;;;8448425;27;20010;-71
2023/08/14 12:20:24;;;;;;;;;;;23.80;99.90;;;;;;8430956;28;19932;-71
2023/08/14 12:24:26;;;;;;;;;;;23.90;99.90;;;;;;8424444;28;19924;-71
2023/08/14 12:28:28;;;;;;;;;;;24.00;99.90;;;;;;8434173;28;19928;-71
2023/08/14 12:32:30;;;;;;;;;;;23.90;99.90;;;;;;8428198;28;19932;-71
2023/08/14 12:36:31;;;;;;;;;;;24.00;99.90;;;;;;8428458;28;20018;-71
2023/08/14 12:40:33;;;;;;;;;;;24.00;99.90;;;;;;8430452;28;19924;-71
2023/08/14 12:44:35;;;;;;;;;;;24.10;99.90;;;;;;8428348;28;19924;-70
2023/08/14 12:48:37;;;;;;;;;;;24.20;99.90;;;;;;8428640;28;19924;-70
2023/08/14 12:52:38;;;;;;;;;;;24.20;99.90;;;;;;8431825;28;20028;-71
2023/08/14 12:56:40;;;;;;;;;;;24.30;99.90;;;;;;8438372;27;19928;-71
2023/08/14 13:00:43;;;;;;;;;;;24.30;99.90;;;;;;8420518;28;19951;-71
2023/08/14 13:04:45;;;;;;;;;;;24.40;99.90;;;;;;8424372;28;19977;-71
2023/08/14 13:08:47;;;;;;;;;;;24.50;99.90;;;;;;8448790;27;19923;-70
2023/08/14 13:12:50;;;;;;;;;;;24.50;99.90;;;;;;8429550;28;19924;-71
2023/08/14 13:16:51;;;;;;;;;;;24.60;99.90;;;;;;8426379;28;19923;-70
2023/08/14 13:20:53;;;;;;;;;;;24.70;99.90;;;;;;8436213;28;19946;-71
2023/08/14 13:24:55;;;;;;;;;;;24.70;99.90;;;;;;8430202;28;19924;-71
2023/08/14 13:28:57;;;;;;;;;;;24.70;99.90;;;;;;8448648;27;19924;-71
2023/08/14 13:32:58;;;;;;;;;;;24.80;99.90;;;;;;8429814;28;19928;-71
2023/08/14 13:37:00;;;;;;;;;;;24.80;99.90;;;;;;8436909;28;19931;-71
2023/08/14 13:41:02;;;;;;;;;;;24.80;99.90;;;;;;8433744;28;19924;-71
2023/08/14 13:45:03;;;;;;;;;;;24.80;99.90;;;;;;8444509;27;19936;-70
2023/08/14 13:49:18;;;;;;;;;;;24.80;99.90;;;;;;8439044;28;19969;-71
2023/08/14 13:53:20;;;;;;;;;;;24.80;99.90;;;;;;8434069;28;19925;-71
2023/08/14 13:57:21;;;;;;;;;;;24.90;99.90;;;;;;8438009;28;19934;-71
2023/08/14 14:01:23;;;;;;;;;;;24.90;99.90;;;;;;8453686;27;20314;-71
2023/08/14 14:05:25;;;;;;;;;;;25.00;99.90;;;;;;8453978;27;19972;-71
2023/08/14 14:09:27;;;;;;;;;;;25.00;99.90;;;;;;8442235;28;20464;-71
2023/08/14 14:13:30;;;;;;;;;;;25.10;99.90;;;;;;8422491;28;19965;-71
2023/08/14 14:17:32;;;;;;;;;;;25.10;99.90;;;;;;8429758;28;19924;-70
2023/08/14 14:21:33;;;;;;;;;;;25.10;99.90;;;;;;8427932;28;19924;-71
2023/08/14 14:25:37;;;;;;;;;;;25.20;99.90;;;;;;8430541;28;20224;-71
2023/08/14 14:29:39;;;;;;;;;;;25.20;99.90;;;;;;8433104;28;19928;-70
2023/08/14 14:33:40;;;;;;;;;;;25.20;99.90;;;;;;8422059;28;19964;-70
2023/08/14 14:37:42;;;;;;;;;;;25.30;99.90;;;;;;8434859;28;19924;-71
2023/08/14 14:41:45;;;;;;;;;;;25.30;99.90;;;;;;8434022;28;19931;-71
2023/08/14 14:45:47;;;;;;;;;;;25.40;99.90;;;;;;8435412;28;20428;-71
2023/08/14 14:49:49;;;;;;;;;;;25.40;99.90;;;;;;8438511;28;20334;-71
2023/08/14 14:53:50;;;;;;;;;;;25.50;99.90;;;;;;8427966;28;19981;-71
2023/08/14 14:57:52;;;;;;;;;;;25.60;99.90;;;;;;8441210;28;19961;-71
2023/08/14 15:01:54;;;;;;;;;;;25.60;99.90;;;;;;8428412;28;19978;-70
2023/08/14 15:05:55;;;;;;;;;;;25.60;99.90;;;;;;8435257;28;19994;-71
2023/08/14 15:09:57;;;;;;;;;;;25.60;99.90;;;;;;8429982;28;19993;-71
2023/08/14 15:13:59;;;;;;;;;;;25.70;99.90;;;;;;8436521;28;19986;-71
2023/08/14 15:18:00;;;;;;;;;;;25.70;99.90;;;;;;8436406;28;19932;-71
2023/08/14 15:22:02;;;;;;;;;;;25.80;99.90;;;;;;8436374;28;19928;-71
2023/08/14 15:26:04;;;;;;;;;;;26.00;99.90;;;;;;8436044;28;20277;-71
2023/08/14 15:30:06;;;;;;;;;;;26.10;99.90;;;;;;8451765;27;19990;-71
2023/08/14 15:34:08;;;;;;;;;;;26.20;99.90;;;;;;8434084;28;19928;-71
2023/08/14 15:38:09;;;;;;;;;;;26.30;99.90;;;;;;8437109;28;20012;-71
2023/08/14 15:42:11;;;;;;;;;;;26.40;99.90;;;;;;8433300;28;19942;-71
2023/08/14 15:46:13;;;;;;;;;;;26.50;99.90;;;;;;8434575;27;19940;-71
2023/08/14 15:50:14;;;;;;;;;;;26.70;99.90;;;;;;8434412;28;19925;-71
2023/08/14 15:54:16;;;;;;;;;;;27.00;99.90;;;;;;8425831;28;19931;-71
2023/08/14 15:58:18;;;;;;;;;;;27.30;99.90;;;;;;8411558;27;19935;-71
2023/08/14 16:02:21;;;;;;;;;;;27.60;99.90;;;;;;8428861;27;20063;-71
2023/08/14 16:06:23;;;;;;;;;;;28.10;99.90;;;;;;8411600;28;19932;-71
2023/08/14 16:10:24;;;;;;;;;;;28.40;99.90;;;;;;8419169;27;19925;-71
2023/08/14 16:14:26;;;;;;;;;;;28.70;99.90;;;;;;8426373;27;19932;-71
2023/08/14 16:18:28;;;;;;;;;;;28.90;99.90;;;;;;8432573;27;20296;-71
2023/08/14 16:22:29;;;;;;;;;;;29.00;99.90;;;;;;8435283;27;19927;-71
2023/08/14 16:26:31;;;;;;;;;;;29.20;99.90;;;;;;8432126;27;19939;-71
2023/08/14 16:30:33;;;;;;;;;;;29.30;99.90;;;;;;8431015;28;19931;-71
2023/08/14 16:34:34;;;;;;;;;;;29.40;99.90;;;;;;8426490;28;19928;-71
2023/08/14 16:38:36;;;;;;;;;;;29.50;99.90;;;;;;8429730;28;19924;-71
2023/08/14 16:42:37;;;;;;;;;;;29.50;99.90;;;;;;8429189;27;19924;-71
2023/08/14 16:46:39;;;;;;;;;;;29.40;99.90;;;;;;8429549;27;19924;-71
2023/08/14 16:50:41;;;;;;;;;;;29.40;99.90;;;;;;8430407;27;20015;-71
2023/08/14 16:54:42;;;;;;;;;;;29.30;99.90;;;;;;8430100;27;19924;-71
2023/08/14 16:58:44;;;;;;;;;;;29.30;99.90;;;;;;8444426;27;19923;-71
2023/08/14 17:02:46;;;;;;;;;;;29.30;99.90;;;;;;8430941;27;19939;-71
2023/08/14 17:06:47;;;;;;;;;;;29.30;99.90;;;;;;8427968;28;19931;-71
2023/08/14 17:10:50;;;;;;;;;;;29.20;99.90;;;;;;8432530;28;19924;-70
2023/08/14 17:14:52;;;;;;;;;;;29.00;99.90;;;;;;8435621;28;19932;-71
2023/08/14 17:18:53;;;;;;;;;;;28.80;99.90;;;;;;8430319;28;20420;-70
2023/08/14 17:22:55;;;;;;;;;;;28.60;99.90;;;;;;8435247;27;20261;-70
2023/08/14 17:26:57;;;;;;;;;;;28.30;99.90;;;;;;8434530;27;19948;-70
2023/08/14 17:30:59;;;;;;;;;;;28.10;99.90;;;;;;8439119;27;20280;-70
2023/08/14 17:35:00;;;;;;;;;;;28.00;99.90;;;;;;8439036;27;19928;-70
2023/08/14 17:39:04;;;;;;;;;;;27.80;99.90;;;;;;8434188;28;19981;-70
2023/08/14 17:43:06;;;;;;;;;;;27.60;99.90;;;;;;8435248;27;19928;-70
2023/08/14 17:47:07;;;;;;;;;;;27.50;99.90;;;;;;8438998;27;19932;-70
2023/08/14 17:51:09;;;;;;;;;;;27.40;99.90;;;;;;8439367;27;19966;-70
2023/08/14 17:55:11;;;;;;;;;;;27.30;99.90;;;;;;8432926;27;19965;-71
2023/08/14 17:59:12;;;;;;;;;;;27.20;99.90;;;;;;8436375;27;20379;-70
2023/08/14 18:03:14;;;;;;;;;;;27.00;99.90;;;;;;8435675;28;20251;-70
2023/08/14 18:07:16;;;;;;;;;;;26.90;99.90;;;;;;8438831;27;19924;-71
2023/08/14 18:11:19;;;;;;;;;;;26.70;99.90;;;;;;8435953;28;19930;-70
2023/08/14 18:15:23;;;;;;;;;;;26.60;99.90;;;;;;8436115;28;20690;-70
2023/08/14 18:19:24;;;;;;;;;;;26.40;99.90;;;;;;8442132;27;19927;-70
2023/08/14 18:23:30;;;;;;;;;;;26.20;99.90;;;;;;8440043;28;19928;-70
2023/08/14 18:27:32;;;;;;;;;;;26.00;99.90;;;;;;8439211;28;19939;-70
2023/08/14 18:31:33;;;;;;;;;;;25.80;99.90;;;;;;8436844;27;19931;-70
2023/08/14 18:35:35;;;;;;;;;;;25.60;99.90;;;;;;8436744;27;19935;-71
2023/08/14 18:39:37;;;;;;;;;;;25.40;99.90;;;;;;8435780;28;19924;-71
2023/08/14 18:43:38;;;;;;;;;;;25.20;99.90;;;;;;8441165;28;19953;-70
2023/08/14 18:47:40;;;;;;;;;;;25.10;99.90;;;;;;8434712;27;19924;-71
2023/08/14 18:51:42;;;;;;;;;;;24.90;99.90;;;;;;8434930;28;19923;-70
2023/08/14 18:55:44;;;;;;;;;;;24.80;99.90;;;;;;8435925;27;19974;-71
2023/08/14 18:59:46;;;;;;;;;;;24.70;99.90;;;;;;8437962;28;19924;-71
2023/08/14 19:03:48;;;;;;;;;;;24.50;99.90;;;;;;8418497;28;19992;-70
2023/08/14 19:07:50;;;;;;;;;;;24.40;99.90;;;;;;8437938;28;20277;-70
2023/08/14 19:11:51;;;;;;;;;;;24.30;99.90;;;;;;8423040;28;20276;-70
2023/08/14 19:15:53;;;;;;;;;;;24.20;99.90;;;;;;8435923;28;19932;-70
2023/08/14 19:19:55;;;;;;;;;;;24.10;99.90;;;;;;8433600;28;19924;-70
2023/08/14 19:23:56;;;;;;;;;;;24.00;99.90;;;;;;8430076;28;19931;-70
2023/08/14 19:27:58;;;;;;;;;;;23.90;99.90;;;;;;8436349;28;19936;-70
2023/08/14 19:32:03;;;;;;;;;;;23.80;99.90;;;;;;8436946;27;19939;-70
2023/08/14 19:36:05;;;;;;;;;;;23.60;99.90;;;;;;8433495;27;19939;-70
2023/08/14 19:40:09;;;;;;;;;;;23.50;99.90;;;;;;8438118;28;19923;-70
2023/08/14 19:44:11;;;;;;;;;;;23.50;99.90;;;;;;8443836;27;19924;-70
2023/08/14 19:48:13;;;;;;;;;;;23.40;99.90;;;;;;8434143;28;19931;-70
2023/08/14 19:52:14;;;;;;;;;;;23.30;99.90;;;;;;8429685;28;19939;-70
2023/08/14 19:56:16;;;;;;;;;;;23.20;99.90;;;;;;8434327;27;19932;-70
2023/08/14 20:00:18;;;;;;;;;;;23.20;99.90;;;;;;8437662;28;20025;-70
2023/08/14 20:04:20;;;;;;;;;;;23.10;99.90;;;;;;8431887;28;19927;-70
2023/08/14 20:08:23;;;;;;;;;;;23.10;99.90;;;;;;8433050;27;19967;-70
2023/08/14 20:12:24;;;;;;;;;;;23.00;99.90;;;;;;8434155;28;19924;-70
2023/08/14 20:16:26;;;;;;;;;;;22.90;99.90;;;;;;8432524;27;19969;-70
2023/08/14 20:20:28;;;;;;;;;;;22.80;99.90;;;;;;8418239;28;19924;-70
2023/08/14 20:24:30;;;;;;;;;;;22.80;99.90;;;;;;8434620;28;19927;-70
2023/08/14 20:28:32;;;;;;;;;;;22.80;99.90;;;;;;8426875;28;19969;-70
2023/08/14 20:32:34;;;;;;;;;;;22.70;99.90;;;;;;8428318;28;20270;-70
2023/08/14 20:36:36;;;;;;;;;;;22.70;99.90;;;;;;8434113;28;19970;-70
2023/08/14 20:40:38;;;;;;;;;;;22.60;99.90;;;;;;8434451;28;20272;-70
2023/08/14 20:44:40;;;;;;;;;;;22.60;99.90;;;;;;8425995;27;19935;-70
2023/08/14 20:48:41;;;;;;;;;;;22.50;99.90;;;;;;8444739;27;20000;-70
2023/08/14 20:52:43;;;;;;;;;;;22.40;99.90;;;;;;8428857;28;19927;-70
2023/08/14 20:56:45;;;;;;;;;;;22.40;99.90;;;;;;8425786;28;19970;-70
2023/08/14 21:00:47;;;;;;;;;;;22.30;99.90;;;;;;8435204;28;19931;-70
2023/08/14 21:04:48;;;;;;;;;;;22.30;99.90;;;;;;8467209;27;19939;-70
2023/08/14 21:08:50;;;;;;;;;;;22.30;99.90;;;;;;8432966;28;19928;-70
2023/08/14 21:12:52;;;;;;;;;;;22.20;99.90;;;;;;8450551;28;20287;-70
2023/08/14 21:16:53;;;;;;;;;;;22.20;99.90;;;;;;8456020;28;19928;-70
2023/08/14 21:20:55;;;;;;;;;;;22.10;99.90;;;;;;8449748;28;19972;-70
2023/08/14 21:24:57;;;;;;;;;;;22.10;99.90;;;;;;8432910;28;19943;-70
2023/08/14 21:28:58;;;;;;;;;;;22.00;99.90;;;;;;8452566;28;19937;-70
2023/08/14 21:33:00;;;;;;;;;;;22.00;99.90;;;;;;8453062;28;19970;-70
2023/08/14 21:37:02;;;;;;;;;;;21.90;99.90;;;;;;8451210;28;20375;-70
2023/08/14 21:41:03;;;;;;;;;;;21.90;99.90;;;;;;8431557;28;20333;-70
2023/08/14 21:45:06;;;;;;;;;;;21.90;99.90;;;;;;8454445;28;19928;-70
2023/08/14 21:49:07;;;;;;;;;;;21.80;99.90;;;;;;8436163;28;19931;-70
2023/08/14 21:53:09;;;;;;;;;;;21.80;99.90;;;;;;8447406;28;19924;-70
2023/08/14 21:57:11;;;;;;;;;;;21.70;99.90;;;;;;8447355;28;19928;-70
2023/08/14 22:01:13;;;;;;;;;;;21.70;99.90;;;;;;8455403;28;19935;-70
2023/08/14 22:20:30;;;;;;;;;;;21.80;99.90;;;;;;8445813;27;19927;-70
2023/08/14 22:24:32;;;;;;;;;;;21.80;99.90;;;;;;8452414;27;19931;-70
2023/08/14 22:28:36;;;;;;;;;;;21.90;99.90;;;;;;8454904;27;19969;-70
2023/08/14 22:32:38;;;;;;;;;;;21.90;99.90;;;;;;8455957;28;19931;-70
2023/08/14 22:36:40;;;;;;;;;;;21.90;99.90;;;;;;8462715;27;20312;-70
2023/08/14 22:40:41;;;;;;;;;;;21.90;99.90;;;;;;8453468;28;20107;-70
2023/08/14 22:44:43;;;;;;;;;;;21.80;99.90;;;;;;8462176;27;20383;-70
2023/08/14 22:48:45;;;;;;;;;;;21.70;99.90;;;;;;8455656;27;19970;-70
2023/08/14 22:52:46;;;;;;;;;;;21.60;99.90;;;;;;8454673;27;20416;-70
2023/08/14 22:56:48;;;;;;;;;;;21.50;99.90;;;;;;8452845;27;19924;-70
2023/08/14 23:00:50;;;;;;;;;;;21.50;99.90;;;;;;8453968;28;20291;-70
2023/08/14 23:04:51;;;;;;;;;;;21.50;99.90;;;;;;8451300;27;20150;-70
2023/08/14 23:08:53;;;;;;;;;;;21.50;99.90;;;;;;8445972;28;19924;-70
2023/08/14 23:12:55;;;;;;;;;;;21.40;99.90;;;;;;8453830;28;19924;-70
2023/08/14 23:16:56;;;;;;;;;;;21.10;99.90;;;;;;8449923;27;19924;-70
2023/08/14 23:20:58;;;;;;;;;;;21.00;99.90;;;;;;8456709;28;19930;-70
2023/08/14 23:24:59;;;;;;;;;;;21.10;99.90;;;;;;8458411;27;19928;-70
2023/08/14 23:29:01;;;;;;;;;;;21.10;99.90;;;;;;8450289;28;20384;-70
2023/08/14 23:33:03;;;;;;;;;;;21.20;99.90;;;;;;8450704;27;19923;-70
2023/08/14 23:37:05;;;;;;;;;;;21.20;99.90;;;;;;8443288;28;20383;-70
2023/08/14 23:41:06;;;;;;;;;;;21.20;99.90;;;;;;8450099;28;19932;-70